createdAt,value
2022-11-14T00:01:14.062Z,5.20
2022-11-14T00:03:43.129Z,5.20
2022-11-14T00:06:10.969Z,5.20
2022-11-14T00:08:38.671Z,5.20
2022-11-14T00:11:06.822Z,5.20
2022-11-14T00:13:34.520Z,5.10
2022-11-14T00:16:02.278Z,5.10
2022-11-14T00:18:30.321Z,5.10
2022-11-14T00:20:59.587Z,5.10
2022-11-14T00:23:27.333Z,5.10
2022-11-14T00:25:55.045Z,5.10
2022-11-14T00:28:22.787Z,5.10
2022-11-14T00:30:50.602Z,5.10
2022-11-14T00:33:20.934Z,5.10
2022-11-14T00:35:53.819Z,5.00
2022-11-14T00:38:23.814Z,4.90
2022-11-14T00:40:51.605Z,4.90
2022-11-14T00:43:19.440Z,4.90
2022-11-14T00:45:47.901Z,4.90
2022-11-14T00:48:15.847Z,4.90
2022-11-14T00:50:44.049Z,4.90
2022-11-14T00:53:11.808Z,4.90
2022-11-14T00:55:41.915Z,4.90
2022-11-14T00:58:09.915Z,4.90
2022-11-14T01:00:38.161Z,4.80
2022-11-14T01:03:05.924Z,4.80
2022-11-14T01:05:33.846Z,4.80
2022-11-14T01:08:01.602Z,4.80
2022-11-14T01:10:29.382Z,4.80
2022-11-14T01:12:58.448Z,4.80
2022-11-14T01:15:26.158Z,4.80
2022-11-14T01:17:53.946Z,4.80
2022-11-14T01:20:21.643Z,4.80
2022-11-14T01:22:49.367Z,4.80
2022-11-14T01:25:17.240Z,4.80
2022-11-14T01:27:44.992Z,4.90
2022-11-14T01:30:15.095Z,4.90
2022-11-14T01:32:42.832Z,4.90
2022-11-14T01:35:10.591Z,4.90
2022-11-14T01:37:38.338Z,4.90
2022-11-14T01:40:06.975Z,4.90
2022-11-14T01:42:34.751Z,4.90
2022-11-14T01:45:02.479Z,4.90
2022-11-14T01:47:34.078Z,4.80
2022-11-14T01:50:05.479Z,4.80
2022-11-14T01:52:36.881Z,4.70
2022-11-14T01:55:07.719Z,4.60
2022-11-14T01:57:38.327Z,4.60
2022-11-14T02:00:10.299Z,4.50
2022-11-14T02:02:39.848Z,4.50
2022-11-14T02:05:10.045Z,4.50
2022-11-14T02:07:40.825Z,4.50
2022-11-14T02:10:12.200Z,4.50
2022-11-14T02:12:39.932Z,4.50
2022-11-14T02:15:08.810Z,4.60
2022-11-14T02:17:36.641Z,4.60
2022-11-14T02:20:15.929Z,4.50
2022-11-14T02:22:44.009Z,4.50
2022-11-14T02:25:14.249Z,4.50
2022-11-14T02:27:42.889Z,4.50
2022-11-14T02:30:13.631Z,4.40
2022-11-14T02:35:30.482Z,4.40
2022-11-14T02:37:58.237Z,4.40
2022-11-14T02:40:25.956Z,4.40
2022-11-14T02:42:53.672Z,4.40
2022-11-14T02:45:21.693Z,4.40
2022-11-14T02:47:49.455Z,4.40
2022-11-14T02:50:17.889Z,4.40
2022-11-14T02:52:46.990Z,4.40
2022-11-14T02:55:14.699Z,4.40
2022-11-14T02:57:42.401Z,4.40
2022-11-14T03:00:14.882Z,4.40
2022-11-14T03:02:42.990Z,4.40
2022-11-14T03:05:11.061Z,4.40
2022-11-14T03:07:39.293Z,4.40
2022-11-14T03:10:09.554Z,4.40
2022-11-14T03:12:37.532Z,4.40
2022-11-14T03:15:05.923Z,4.40
2022-11-14T03:17:34.470Z,4.40
2022-11-14T03:20:02.531Z,4.40
2022-11-14T03:22:30.608Z,4.30
2022-11-14T03:24:58.365Z,4.30
2022-11-14T03:27:27.524Z,4.30
2022-11-14T03:29:55.317Z,4.30
2022-11-14T03:32:23.085Z,4.30
2022-11-14T03:34:50.837Z,4.30
2022-11-14T03:37:18.604Z,4.30
2022-11-14T03:39:46.343Z,4.30
2022-11-14T03:42:14.081Z,4.30
2022-11-14T03:44:43.252Z,4.30
2022-11-14T03:47:11.339Z,4.20
2022-11-14T03:49:39.100Z,4.30
2022-11-14T03:52:06.963Z,4.20
2022-11-14T03:54:34.745Z,4.20
2022-11-14T03:57:02.479Z,4.20
2022-11-14T03:59:30.237Z,4.20
2022-11-14T04:01:59.480Z,4.20
2022-11-14T04:04:27.272Z,4.20
2022-11-14T04:06:55.170Z,4.20
2022-11-14T04:09:22.948Z,4.20
2022-11-14T04:11:50.676Z,4.20
2022-11-14T04:14:18.437Z,4.10
2022-11-14T04:16:46.165Z,4.20
2022-11-14T04:19:15.244Z,4.20
2022-11-14T04:21:43.036Z,4.20
2022-11-14T04:24:11.350Z,4.20
2022-11-14T04:26:39.253Z,4.20
2022-11-14T04:29:06.968Z,4.30
2022-11-14T04:31:34.748Z,4.30
2022-11-14T04:34:02.562Z,4.30
2022-11-14T04:36:31.640Z,4.30
2022-11-14T04:38:59.406Z,4.40
2022-11-14T04:41:27.118Z,4.40
2022-11-14T04:43:54.913Z,4.40
2022-11-14T04:46:22.811Z,4.50
2022-11-14T04:48:50.546Z,4.50
2022-11-14T04:51:18.677Z,4.50
2022-11-14T04:53:47.790Z,4.60
2022-11-14T04:56:15.563Z,4.60
2022-11-14T04:58:43.632Z,4.60
2022-11-14T05:01:12.269Z,4.70
2022-11-14T05:03:40.013Z,4.70
2022-11-14T05:06:08.235Z,4.70
2022-11-14T05:08:36.105Z,4.70
2022-11-14T05:11:05.302Z,4.70
2022-11-14T05:13:33.088Z,4.70
2022-11-14T05:16:01.262Z,4.70
2022-11-14T05:18:29.322Z,4.70
2022-11-14T05:21:00.005Z,4.70
2022-11-14T05:23:28.178Z,4.70
2022-11-14T05:26:06.111Z,4.70
2022-11-14T05:28:35.712Z,4.70
2022-11-14T05:31:04.388Z,4.70
2022-11-14T05:33:32.528Z,4.70
2022-11-14T05:36:04.040Z,4.70
2022-11-14T05:38:32.054Z,4.70
2022-11-14T05:41:00.208Z,4.80
2022-11-14T05:43:30.635Z,4.80
2022-11-14T05:46:01.938Z,4.80
2022-11-14T05:48:30.752Z,4.80
2022-11-14T05:51:00.213Z,4.80
2022-11-14T05:53:29.514Z,4.80
2022-11-14T05:56:01.046Z,4.80
2022-11-14T05:58:29.289Z,4.80
2022-11-14T06:01:04.668Z,4.80
2022-11-14T06:03:34.025Z,4.80
2022-11-14T06:06:02.999Z,4.80
2022-11-14T06:08:31.695Z,4.80
2022-11-14T06:11:04.471Z,4.80
2022-11-14T06:13:32.905Z,4.80
2022-11-14T06:16:01.870Z,4.80
2022-11-14T06:18:33.712Z,4.80
2022-11-14T06:21:01.979Z,4.80
2022-11-14T06:23:29.935Z,4.80
2022-11-14T06:26:01.452Z,4.80
2022-11-14T06:28:29.823Z,4.80
2022-11-14T06:30:59.809Z,4.80
2022-11-14T06:33:27.750Z,4.80
2022-11-14T06:36:00.723Z,4.80
2022-11-14T06:38:28.875Z,4.80
2022-11-14T06:41:03.360Z,4.80
2022-11-14T06:43:34.237Z,4.80
2022-11-14T06:46:02.305Z,4.80
2022-11-14T06:48:30.733Z,4.90
2022-11-14T06:51:00.781Z,4.90
2022-11-14T06:53:30.765Z,4.90
2022-11-14T06:55:59.927Z,4.90
2022-11-14T06:58:29.165Z,4.90
2022-11-14T07:00:57.743Z,4.90
2022-11-14T07:03:25.630Z,4.90
2022-11-14T07:05:53.447Z,4.90
2022-11-14T07:08:22.736Z,4.90
2022-11-14T07:10:50.520Z,4.90
2022-11-14T07:13:18.273Z,4.80
2022-11-14T07:15:51.903Z,4.80
2022-11-14T07:18:19.781Z,4.80
2022-11-14T07:20:47.555Z,4.80
2022-11-14T07:23:19.946Z,4.80
2022-11-14T07:25:51.780Z,4.90
2022-11-14T07:28:19.544Z,4.90
2022-11-14T07:30:47.297Z,4.90
2022-11-14T07:33:15.033Z,5.00
2022-11-14T07:35:42.839Z,5.00
2022-11-14T07:38:10.558Z,5.10
2022-11-14T07:40:38.411Z,5.10
2022-11-14T07:43:07.504Z,5.10
2022-11-14T07:45:35.229Z,5.20
2022-11-14T07:48:03.396Z,5.20
2022-11-14T07:50:31.571Z,5.20
2022-11-14T07:52:59.294Z,5.40
2022-11-14T07:55:27.037Z,5.30
2022-11-14T07:57:55.384Z,5.40
2022-11-14T08:00:24.519Z,5.40
2022-11-14T08:02:52.282Z,5.40
2022-11-14T08:05:20.021Z,5.50
2022-11-14T08:07:48.018Z,5.50
2022-11-14T08:10:16.208Z,5.50
2022-11-14T08:12:43.976Z,5.60
2022-11-14T08:15:14.136Z,5.60
2022-11-14T08:17:43.270Z,5.60
2022-11-14T08:20:12.248Z,5.70
2022-11-14T08:22:39.988Z,5.70
2022-11-14T08:25:08.588Z,5.70
2022-11-14T08:27:36.424Z,5.80
2022-11-14T08:30:04.933Z,5.80
2022-11-14T08:32:32.694Z,5.80
2022-11-14T08:35:01.751Z,5.80
2022-11-14T08:37:29.487Z,5.90
2022-11-14T08:39:57.181Z,5.90
2022-11-14T08:42:24.886Z,5.90
2022-11-14T08:44:52.853Z,5.90
2022-11-14T08:47:20.987Z,6.00
2022-11-14T08:49:48.719Z,6.00
2022-11-14T08:52:17.834Z,6.00
2022-11-14T08:54:45.592Z,6.00
2022-11-14T08:57:15.195Z,6.10
2022-11-14T08:59:43.072Z,6.10
2022-11-14T09:02:12.133Z,6.10
2022-11-14T09:04:39.943Z,6.20
2022-11-14T09:07:08.111Z,6.20
2022-11-14T09:09:37.265Z,6.20
2022-11-14T09:12:05.545Z,6.20
2022-11-14T09:14:33.268Z,6.20
2022-11-14T09:17:05.718Z,6.30
2022-11-14T09:19:33.954Z,6.30
2022-11-14T09:22:01.785Z,6.30
2022-11-14T09:24:29.519Z,6.30
2022-11-14T09:26:58.616Z,6.30
2022-11-14T09:29:26.384Z,6.40
2022-11-14T09:31:55.006Z,6.50
2022-11-14T09:34:22.798Z,6.70
2022-11-14T09:36:50.522Z,6.90
2022-11-14T09:39:19.318Z,7.10
2022-11-14T09:42:00.738Z,7.30
2022-11-14T09:44:45.300Z,7.40
2022-11-14T09:47:20.792Z,7.50
2022-11-14T09:49:52.407Z,7.60
2022-11-14T09:52:32.069Z,7.60
2022-11-14T09:55:02.584Z,7.60
2022-11-14T09:57:30.906Z,7.60
2022-11-14T10:00:00.019Z,7.70
2022-11-14T10:02:41.213Z,7.80
2022-11-14T10:05:21.167Z,7.80
2022-11-14T10:08:02.259Z,7.70
2022-11-14T10:10:43.094Z,7.70
2022-11-14T10:13:21.942Z,7.70
2022-11-14T10:15:57.177Z,7.70
2022-11-14T10:18:39.156Z,7.60
2022-11-14T10:21:18.719Z,7.60
2022-11-14T10:23:57.489Z,7.50
2022-11-14T10:26:30.007Z,7.50
2022-11-14T10:29:15.007Z,7.50
2022-11-14T10:31:53.599Z,7.50
2022-11-14T10:34:28.092Z,7.50
2022-11-14T10:37:02.025Z,7.50
2022-11-14T10:39:35.284Z,7.40
2022-11-14T10:42:10.752Z,7.50
2022-11-14T10:44:44.306Z,7.40
2022-11-14T10:47:17.946Z,7.40
2022-11-14T10:49:49.159Z,7.40
2022-11-14T10:52:22.430Z,7.40
2022-11-14T10:54:56.184Z,7.50
2022-11-14T10:57:24.306Z,7.50
2022-11-14T10:59:52.704Z,7.50
2022-11-14T11:02:22.067Z,7.60
2022-11-14T11:04:49.841Z,7.60
2022-11-14T11:07:42.816Z,7.70
2022-11-14T11:10:40.190Z,7.70
2022-11-14T11:13:10.906Z,7.70
2022-11-14T11:15:41.731Z,7.70
2022-11-14T11:18:26.691Z,7.70
2022-11-14T11:21:09.855Z,7.70
2022-11-14T11:23:38.579Z,7.70
2022-11-14T11:26:09.451Z,7.70
2022-11-14T11:28:38.371Z,7.70
2022-11-14T11:31:08.205Z,7.70
2022-11-14T11:33:38.758Z,7.70
2022-11-14T11:36:12.476Z,7.70
2022-11-14T11:38:41.597Z,7.80
2022-11-14T11:41:42.424Z,7.80
2022-11-14T11:44:13.931Z,7.80
2022-11-14T11:46:47.959Z,7.90
2022-11-14T11:49:19.968Z,7.90
2022-11-14T11:51:48.306Z,7.90
2022-11-14T11:54:19.637Z,8.00
2022-11-14T11:56:51.563Z,8.10
2022-11-14T11:59:28.649Z,8.20
2022-11-14T12:01:56.695Z,8.30
2022-11-14T12:04:26.071Z,8.30
2022-11-14T12:06:59.914Z,8.40
2022-11-14T12:10:08.358Z,8.50
2022-11-14T12:12:29.181Z,8.50
2022-11-14T12:15:08.716Z,8.60
2022-11-14T12:18:08.462Z,8.60
2022-11-14T12:20:51.686Z,8.60
2022-11-14T12:23:43.647Z,8.60
2022-11-14T12:26:25.598Z,8.70
2022-11-14T12:29:12.069Z,8.70
2022-11-14T12:31:40.993Z,8.70
2022-11-14T12:34:17.501Z,8.70
2022-11-14T12:36:47.276Z,8.70
2022-11-14T12:39:25.393Z,8.70
2022-11-14T12:42:02.824Z,8.70
2022-11-14T12:44:37.178Z,8.70
2022-11-14T12:47:19.817Z,8.70
2022-11-14T12:50:21.016Z,8.70
2022-11-14T12:52:53.832Z,8.60
2022-11-14T12:55:57.650Z,8.60
2022-11-14T12:58:45.417Z,8.60
2022-11-14T13:01:28.256Z,8.60
2022-11-14T13:04:16.292Z,8.60
2022-11-14T13:06:52.945Z,8.60
2022-11-14T13:09:33.720Z,8.60
2022-11-14T13:12:48.064Z,8.60
2022-11-14T13:15:49.177Z,8.60
2022-11-14T13:18:41.028Z,8.60
2022-11-14T13:21:42.345Z,8.60
2022-11-14T13:24:13.760Z,8.60
2022-11-14T13:26:50.941Z,8.60
2022-11-14T13:29:54.553Z,8.60
2022-11-14T13:33:02.856Z,8.60
2022-11-14T13:35:46.573Z,8.50
2022-11-14T13:38:52.956Z,8.50
2022-11-14T13:41:47.788Z,8.50
2022-11-14T13:44:46.697Z,8.50
2022-11-14T13:47:42.522Z,8.50
2022-11-14T13:50:12.459Z,8.50
2022-11-14T13:52:43.382Z,8.50
2022-11-14T13:55:21.052Z,8.50
2022-11-14T13:58:01.475Z,8.50
2022-11-14T14:00:40.262Z,8.50
2022-11-14T14:03:35.291Z,8.40
2022-11-14T14:06:20.270Z,8.40
2022-11-14T14:09:04.221Z,8.40
2022-11-14T14:11:43.490Z,8.30
2022-11-14T14:14:32.978Z,8.30
2022-11-14T14:17:10.732Z,8.30
2022-11-14T14:19:51.484Z,8.30
2022-11-14T14:22:28.782Z,8.40
2022-11-14T14:25:05.631Z,8.40
2022-11-14T14:27:40.502Z,8.40
2022-11-14T14:30:11.891Z,8.30
2022-11-14T14:32:41.243Z,8.30
2022-11-14T14:35:22.816Z,8.30
2022-11-14T14:37:54.998Z,8.20
2022-11-14T14:40:28.019Z,8.20
2022-11-14T14:42:57.241Z,8.20
2022-11-14T14:45:26.819Z,8.20
2022-11-14T14:48:04.437Z,8.20
2022-11-14T14:50:41.546Z,8.20
2022-11-14T14:53:23.566Z,8.20
2022-11-14T14:55:56.756Z,8.20
2022-11-14T14:58:26.919Z,8.10
2022-11-14T15:00:57.821Z,8.10
2022-11-14T15:03:35.457Z,8.10
2022-11-14T15:06:06.895Z,8.10
2022-11-14T15:08:38.775Z,8.10
2022-11-14T15:11:08.208Z,8.10
2022-11-14T15:13:38.546Z,8.00
2022-11-14T15:16:07.495Z,8.10
2022-11-14T15:18:36.832Z,8.00
2022-11-14T15:21:09.170Z,8.00
2022-11-14T15:23:38.812Z,8.00
2022-11-14T15:26:14.194Z,8.00
2022-11-14T15:28:42.051Z,8.00
2022-11-14T15:31:18.225Z,8.00
2022-11-14T15:34:00.955Z,8.00
2022-11-14T15:36:28.746Z,7.90
2022-11-14T15:39:01.710Z,8.00
2022-11-14T15:41:30.953Z,7.90
2022-11-14T15:44:02.781Z,7.90
2022-11-14T15:46:47.518Z,7.90
2022-11-14T15:49:22.710Z,8.00
2022-11-14T15:51:54.091Z,7.90
2022-11-14T15:54:27.832Z,7.90
2022-11-14T15:56:57.025Z,7.90
2022-11-14T15:59:25.840Z,7.90
2022-11-14T16:01:57.501Z,7.90
2022-11-14T16:04:31.882Z,7.90
2022-11-14T16:07:00.043Z,7.90
2022-11-14T16:09:27.916Z,7.90
2022-11-14T16:11:55.664Z,7.90
2022-11-14T16:14:23.444Z,7.90
2022-11-14T16:16:51.184Z,7.90
2022-11-14T16:19:18.949Z,7.90
2022-11-14T16:21:48.055Z,7.90
2022-11-14T16:24:18.379Z,7.90
2022-11-14T16:26:46.432Z,7.90
2022-11-14T16:29:14.500Z,7.90
2022-11-14T16:31:42.778Z,7.90
2022-11-14T16:34:16.829Z,7.90
2022-11-14T16:36:46.001Z,7.90
2022-11-14T16:39:15.368Z,7.90
2022-11-14T16:41:43.128Z,7.90
2022-11-14T16:44:16.502Z,7.80
2022-11-14T16:46:44.412Z,7.90
2022-11-14T16:49:14.962Z,7.90
2022-11-14T16:51:48.590Z,7.90
2022-11-14T16:54:19.176Z,7.90
2022-11-14T16:56:47.382Z,7.90
2022-11-14T16:59:15.368Z,7.90
2022-11-14T17:01:43.638Z,7.90
2022-11-14T17:04:11.554Z,7.90
2022-11-14T17:06:39.645Z,7.90
2022-11-14T17:09:07.702Z,7.90
2022-11-14T17:11:36.925Z,7.90
2022-11-14T17:14:04.717Z,7.90
2022-11-14T17:16:32.490Z,7.90
2022-11-14T17:19:00.413Z,7.90
2022-11-14T17:21:28.177Z,7.90
2022-11-14T17:23:56.648Z,7.90
2022-11-14T17:26:24.851Z,7.90
2022-11-14T17:28:54.068Z,7.90
2022-11-14T17:31:22.117Z,7.90
2022-11-14T17:33:53.356Z,7.90
2022-11-14T17:36:22.328Z,7.90
2022-11-14T17:38:50.185Z,8.00
2022-11-14T17:41:19.127Z,7.90
2022-11-14T17:43:46.911Z,7.90
2022-11-14T17:46:16.526Z,7.90
2022-11-14T17:48:44.535Z,7.90
2022-11-14T17:51:14.422Z,7.90
2022-11-14T17:53:43.095Z,7.90
2022-11-14T17:56:14.377Z,7.90
2022-11-14T17:58:42.176Z,7.90
2022-11-14T18:01:11.382Z,7.90
2022-11-14T18:03:40.770Z,8.00
2022-11-14T18:06:09.796Z,7.90
2022-11-14T18:08:38.307Z,7.90
2022-11-14T18:11:08.245Z,7.90
2022-11-14T18:13:35.999Z,7.90
2022-11-14T18:16:04.378Z,7.90
2022-11-14T18:18:33.055Z,8.00
2022-11-14T18:21:07.369Z,7.90
2022-11-14T18:23:36.116Z,7.90
2022-11-14T18:26:10.192Z,7.90
2022-11-14T18:28:38.040Z,7.90
2022-11-14T18:31:07.727Z,7.90
2022-11-14T18:33:36.399Z,7.90
2022-11-14T18:36:08.188Z,7.90
2022-11-14T18:38:36.218Z,7.90
2022-11-14T18:41:08.372Z,7.80
2022-11-14T18:43:36.125Z,7.80
2022-11-14T18:46:08.276Z,7.80
2022-11-14T18:48:36.531Z,7.80
2022-11-14T18:51:07.892Z,7.80
2022-11-14T18:53:36.751Z,7.80
2022-11-14T18:56:05.364Z,7.70
2022-11-14T18:58:33.274Z,7.70
2022-11-14T19:01:09.778Z,7.70
2022-11-14T19:03:37.568Z,7.70
2022-11-14T19:06:08.548Z,7.60
2022-11-14T19:08:36.388Z,7.60
2022-11-14T19:11:05.136Z,7.60
2022-11-14T19:13:33.271Z,7.60
2022-11-14T19:16:05.220Z,7.50
2022-11-14T19:18:33.998Z,7.50
2022-11-14T19:21:03.308Z,7.50
2022-11-14T19:23:34.335Z,7.40
2022-11-14T19:26:02.907Z,7.40
2022-11-14T19:28:30.761Z,7.40
2022-11-14T19:31:02.920Z,7.40
2022-11-14T19:33:31.082Z,7.30
2022-11-14T19:35:59.609Z,7.30
2022-11-14T19:38:27.361Z,7.30
2022-11-14T19:41:00.788Z,7.30
2022-11-14T19:43:31.495Z,7.20
2022-11-14T19:46:02.526Z,7.20
2022-11-14T19:48:30.413Z,7.10
2022-11-14T19:51:02.660Z,7.20
2022-11-14T19:53:30.905Z,7.10
2022-11-14T19:56:03.929Z,7.10
2022-11-14T19:58:31.662Z,7.10
2022-11-14T20:01:02.951Z,7.10
2022-11-14T20:03:31.307Z,7.10
2022-11-14T20:05:59.460Z,7.00
2022-11-14T20:08:27.487Z,7.00
2022-11-14T20:10:59.224Z,7.00
2022-11-14T20:13:30.962Z,7.00
2022-11-14T20:15:59.795Z,7.00
2022-11-14T20:18:29.603Z,7.00
2022-11-14T20:20:58.594Z,7.00
2022-11-14T20:23:27.217Z,7.00
2022-11-14T20:25:55.025Z,7.00
2022-11-14T20:28:22.829Z,7.00
2022-11-14T20:30:51.927Z,7.00
2022-11-14T20:33:19.762Z,7.00
2022-11-14T20:35:47.505Z,7.00
2022-11-14T20:38:15.232Z,7.00
2022-11-14T20:40:43.020Z,7.00
2022-11-14T20:43:10.732Z,7.00
2022-11-14T20:45:38.451Z,7.00
2022-11-14T20:48:07.797Z,7.00
2022-11-14T20:50:35.551Z,7.00
2022-11-14T20:53:03.278Z,7.00
2022-11-14T20:55:31.008Z,7.00
2022-11-14T20:57:58.779Z,7.00
2022-11-14T21:00:26.492Z,7.00
2022-11-14T21:02:54.784Z,7.00
2022-11-14T21:05:23.875Z,7.00
2022-11-14T21:07:51.619Z,7.00
2022-11-14T21:10:36.736Z,7.10
2022-11-14T21:13:25.905Z,7.10
2022-11-14T21:15:56.313Z,7.10
2022-11-14T21:18:24.194Z,7.10
2022-11-14T21:21:00.893Z,7.10
2022-11-14T21:23:28.727Z,7.10
2022-11-14T21:26:04.016Z,7.20
2022-11-14T21:28:32.294Z,7.20
2022-11-14T21:31:00.796Z,7.20
2022-11-14T21:33:30.866Z,7.20
2022-11-14T21:36:16.296Z,7.30
2022-11-14T21:38:48.219Z,7.30
2022-11-14T21:41:18.699Z,7.30
2022-11-14T21:43:47.421Z,7.30
2022-11-14T21:46:17.486Z,7.30
2022-11-14T21:48:46.699Z,7.40
2022-11-14T21:51:17.457Z,7.40
2022-11-14T21:53:46.279Z,7.40
2022-11-14T21:56:15.679Z,7.40
2022-11-14T21:58:44.164Z,7.40
2022-11-14T22:01:14.415Z,7.50
2022-11-14T22:04:00.564Z,7.50
2022-11-14T22:06:29.760Z,7.50
2022-11-14T22:08:57.528Z,7.50
2022-11-14T22:11:25.444Z,7.60
2022-11-14T22:13:53.208Z,7.60
2022-11-14T22:16:21.227Z,7.60
2022-11-14T22:18:49.027Z,7.60
2022-11-14T22:21:16.776Z,7.70
2022-11-14T22:23:45.885Z,7.60
2022-11-14T22:26:14.384Z,7.70
2022-11-14T22:28:42.486Z,7.70
2022-11-14T22:31:12.759Z,7.70
2022-11-14T22:33:45.719Z,7.70
2022-11-14T22:36:16.762Z,7.70
2022-11-14T22:38:46.879Z,7.70
2022-11-14T22:41:16.833Z,7.70
2022-11-14T22:43:45.071Z,7.70
2022-11-14T22:46:14.004Z,7.70
2022-11-14T22:48:42.375Z,7.70
2022-11-14T22:51:13.396Z,7.70
2022-11-14T22:53:41.613Z,7.70
2022-11-14T22:56:12.353Z,7.80
2022-11-14T22:58:42.818Z,7.80
2022-11-14T23:01:16.828Z,7.80
2022-11-14T23:03:44.922Z,7.80
2022-11-14T23:06:14.995Z,7.80
2022-11-14T23:08:43.202Z,7.90
2022-11-14T23:11:14.388Z,7.90
2022-11-14T23:13:43.528Z,7.90
2022-11-14T23:16:11.889Z,7.90
2022-11-14T23:18:40.279Z,8.00
2022-11-14T23:21:10.021Z,8.00
2022-11-14T23:23:37.760Z,8.00
2022-11-14T23:26:06.504Z,8.00
2022-11-14T23:28:35.841Z,8.00
2022-11-14T23:31:03.808Z,8.10
2022-11-14T23:33:32.089Z,8.10
2022-11-14T23:36:00.240Z,8.10
2022-11-14T23:38:30.457Z,8.10
2022-11-14T23:41:00.020Z,8.20
2022-11-14T23:43:28.763Z,8.20
2022-11-14T23:45:58.506Z,8.20
2022-11-14T23:48:26.333Z,8.30
2022-11-14T23:50:55.765Z,8.30
2022-11-14T23:53:24.269Z,8.30
2022-11-14T23:55:55.934Z,8.30
2022-11-14T23:58:24.671Z,8.30
